sensor_id;sensor_type;location;lat;lon;timestamp;pressure;altitude;pressure_sealevel;temperature
45701;BMP280;36277;32.852;-116.998;2023-07-13T00:01:58;99832.75;;;25.82
45701;BMP280;36277;32.852;-116.998;2023-07-13T00:04:25;99828.50;;;25.86
45701;BMP280;36277;32.852;-116.998;2023-07-13T00:06:52;99835.06;;;25.72
45701;BMP280;36277;32.852;-116.998;2023-07-13T00:09:19;99835.44;;;25.43
45701;BMP280;36277;32.852;-116.998;2023-07-13T00:11:51;99836.03;;;25.32
45701;BMP280;36277;32.852;-116.998;2023-07-13T00:14:17;99835.38;;;25.18
45701;BMP280;36277;32.852;-116.998;2023-07-13T00:16:44;99830.41;;;25.07
45701;BMP280;36277;32.852;-116.998;2023-07-13T00:19:12;99824.88;;;25.07
45701;BMP280;36277;32.852;-116.998;2023-07-13T00:21:39;99833.34;;;24.99
45701;BMP280;36277;32.852;-116.998;2023-07-13T00:24:10;99829.66;;;24.85
45701;BMP280;36277;32.852;-116.998;2023-07-13T00:26:41;99830.63;;;25.05
45701;BMP280;36277;32.852;-116.998;2023-07-13T00:29:12;99834.75;;;25.28
45701;BMP280;36277;32.852;-116.998;2023-07-13T00:31:38;99829.50;;;25.53
45701;BMP280;36277;32.852;-116.998;2023-07-13T00:34:05;99825.25;;;25.76
45701;BMP280;36277;32.852;-116.998;2023-07-13T00:36:31;99827.44;;;25.94
45701;BMP280;36277;32.852;-116.998;2023-07-13T00:38:57;99831.25;;;25.86
45701;BMP280;36277;32.852;-116.998;2023-07-13T00:41:24;99827.38;;;25.61
45701;BMP280;36277;32.852;-116.998;2023-07-13T00:43:50;99826.09;;;25.44
45701;BMP280;36277;32.852;-116.998;2023-07-13T00:46:24;99825.63;;;25.41
45701;BMP280;36277;32.852;-116.998;2023-07-13T00:48:51;99823.06;;;25.27
45701;BMP280;36277;32.852;-116.998;2023-07-13T00:51:24;99820.09;;;25.22
45701;BMP280;36277;32.852;-116.998;2023-07-13T00:53:53;99818.72;;;25.11
45701;BMP280;36277;32.852;-116.998;2023-07-13T00:56:20;99825.50;;;24.96
45701;BMP280;36277;32.852;-116.998;2023-07-13T00:58:46;99826.59;;;25.08
45701;BMP280;36277;32.852;-116.998;2023-07-13T01:01:13;99817.09;;;25.29
45701;BMP280;36277;32.852;-116.998;2023-07-13T01:03:39;99820.97;;;25.54
45701;BMP280;36277;32.852;-116.998;2023-07-13T01:06:07;99824.19;;;25.77
45701;BMP280;36277;32.852;-116.998;2023-07-13T01:08:34;99825.53;;;25.94
45701;BMP280;36277;32.852;-116.998;2023-07-13T01:11:00;99822.97;;;25.86
45701;BMP280;36277;32.852;-116.998;2023-07-13T01:13:27;99820.19;;;25.73
45701;BMP280;36277;32.852;-116.998;2023-07-13T01:15:55;99825.25;;;25.63
45701;BMP280;36277;32.852;-116.998;2023-07-13T01:18:25;99827.56;;;25.40
45701;BMP280;36277;32.852;-116.998;2023-07-13T01:21:00;99831.56;;;25.31
45701;BMP280;36277;32.852;-116.998;2023-07-13T01:23:28;99825.13;;;25.12
45701;BMP280;36277;32.852;-116.998;2023-07-13T01:25:55;99827.19;;;24.97
45701;BMP280;36277;32.852;-116.998;2023-07-13T01:28:24;99833.41;;;25.12
45701;BMP280;36277;32.852;-116.998;2023-07-13T01:30:53;99832.44;;;25.38
45701;BMP280;36277;32.852;-116.998;2023-07-13T01:33:20;99829.50;;;25.59
45701;BMP280;36277;32.852;-116.998;2023-07-13T01:35:47;99832.28;;;25.79
45701;BMP280;36277;32.852;-116.998;2023-07-13T01:38:17;99838.06;;;25.97
45701;BMP280;36277;32.852;-116.998;2023-07-13T01:40:43;99838.47;;;25.94
45701;BMP280;36277;32.852;-116.998;2023-07-13T01:43:11;99833.78;;;25.75
45701;BMP280;36277;32.852;-116.998;2023-07-13T01:45:37;99830.97;;;25.55
45701;BMP280;36277;32.852;-116.998;2023-07-13T01:48:04;99830.28;;;25.27
45701;BMP280;36277;32.852;-116.998;2023-07-13T01:50:33;99831.97;;;25.28
45701;BMP280;36277;32.852;-116.998;2023-07-13T01:53:00;99828.97;;;25.17
45701;BMP280;36277;32.852;-116.998;2023-07-13T01:55:26;99829.34;;;25.08
45701;BMP280;36277;32.852;-116.998;2023-07-13T01:57:52;99826.88;;;25.19
45701;BMP280;36277;32.852;-116.998;2023-07-13T02:00:18;99834.56;;;25.43
45701;BMP280;36277;32.852;-116.998;2023-07-13T02:02:45;99827.16;;;25.63
45701;BMP280;36277;32.852;-116.998;2023-07-13T02:05:12;99827.22;;;25.82
45701;BMP280;36277;32.852;-116.998;2023-07-13T02:07:39;99836.16;;;25.97
45701;BMP280;36277;32.852;-116.998;2023-07-13T02:10:07;99828.91;;;26.03
45701;BMP280;36277;32.852;-116.998;2023-07-13T02:12:33;99829.53;;;25.79
45701;BMP280;36277;32.852;-116.998;2023-07-13T02:15:00;99829.91;;;25.56
45701;BMP280;36277;32.852;-116.998;2023-07-13T02:17:27;99837.09;;;25.31
45701;BMP280;36277;32.852;-116.998;2023-07-13T02:19:53;99842.59;;;25.19
45701;BMP280;36277;32.852;-116.998;2023-07-13T02:22:20;99831.97;;;25.16
45701;BMP280;36277;32.852;-116.998;2023-07-13T02:24:47;99841.03;;;25.10
45701;BMP280;36277;32.852;-116.998;2023-07-13T02:27:14;99836.84;;;25.27
45701;BMP280;36277;32.852;-116.998;2023-07-13T02:29:40;99848.19;;;25.51
45701;BMP280;36277;32.852;-116.998;2023-07-13T02:32:07;99853.13;;;25.68
45701;BMP280;36277;32.852;-116.998;2023-07-13T02:34:36;99859.31;;;25.83
45701;BMP280;36277;32.852;-116.998;2023-07-13T02:37:03;99863.19;;;25.95
45701;BMP280;36277;32.852;-116.998;2023-07-13T02:39:30;99858.91;;;25.93
45701;BMP280;36277;32.852;-116.998;2023-07-13T02:41:59;99853.72;;;25.57
45701;BMP280;36277;32.852;-116.998;2023-07-13T02:44:26;99862.19;;;25.43
45701;BMP280;36277;32.852;-116.998;2023-07-13T02:46:52;99860.00;;;25.26
45701;BMP280;36277;32.852;-116.998;2023-07-13T02:49:19;99868.22;;;25.06
45701;BMP280;36277;32.852;-116.998;2023-07-13T02:51:45;99874.59;;;25.07
45701;BMP280;36277;32.852;-116.998;2023-07-13T02:54:11;99874.94;;;25.31
45701;BMP280;36277;32.852;-116.998;2023-07-13T02:56:40;99873.91;;;25.51
45701;BMP280;36277;32.852;-116.998;2023-07-13T02:59:06;99869.91;;;25.67
45701;BMP280;36277;32.852;-116.998;2023-07-13T03:01:32;99872.50;;;25.81
45701;BMP280;36277;32.852;-116.998;2023-07-13T03:04:00;99880.84;;;25.94
45701;BMP280;36277;32.852;-116.998;2023-07-13T03:06:26;99873.81;;;25.98
45701;BMP280;36277;32.852;-116.998;2023-07-13T03:08:56;99872.69;;;25.73
45701;BMP280;36277;32.852;-116.998;2023-07-13T03:11:22;99872.00;;;25.52
45701;BMP280;36277;32.852;-116.998;2023-07-13T03:13:48;99871.13;;;25.32
45701;BMP280;36277;32.852;-116.998;2023-07-13T03:16:16;99869.56;;;25.17
45701;BMP280;36277;32.852;-116.998;2023-07-13T03:18:48;99882.88;;;25.07
45701;BMP280;36277;32.852;-116.998;2023-07-13T03:21:15;99887.28;;;25.35
45701;BMP280;36277;32.852;-116.998;2023-07-13T03:23:42;99886.66;;;25.52
45701;BMP280;36277;32.852;-116.998;2023-07-13T03:26:11;99893.31;;;25.71
45701;BMP280;36277;32.852;-116.998;2023-07-13T03:28:39;99889.31;;;25.80
45701;BMP280;36277;32.852;-116.998;2023-07-13T03:31:08;99895.06;;;25.91
45701;BMP280;36277;32.852;-116.998;2023-07-13T03:33:34;99903.78;;;26.01
45701;BMP280;36277;32.852;-116.998;2023-07-13T03:36:01;99891.91;;;25.94
45701;BMP280;36277;32.852;-116.998;2023-07-13T03:38:27;99891.59;;;25.63
45701;BMP280;36277;32.852;-116.998;2023-07-13T03:40:54;99897.06;;;25.37
45701;BMP280;36277;32.852;-116.998;2023-07-13T03:43:20;99902.84;;;25.09
45701;BMP280;36277;32.852;-116.998;2023-07-13T03:45:47;99909.59;;;25.00
45701;BMP280;36277;32.852;-116.998;2023-07-13T03:48:14;99905.38;;;25.04
45701;BMP280;36277;32.852;-116.998;2023-07-13T03:50:41;99904.03;;;25.27
45701;BMP280;36277;32.852;-116.998;2023-07-13T03:53:07;99908.97;;;25.44
45701;BMP280;36277;32.852;-116.998;2023-07-13T03:55:34;99912.81;;;25.56
45701;BMP280;36277;32.852;-116.998;2023-07-13T03:58:24;99928.19;;;25.72
45701;BMP280;36277;32.852;-116.998;2023-07-13T04:00:54;99916.09;;;25.79
45701;BMP280;36277;32.852;-116.998;2023-07-13T04:03:21;99932.09;;;25.90
45701;BMP280;36277;32.852;-116.998;2023-07-13T04:05:47;99929.97;;;25.99
45701;BMP280;36277;32.852;-116.998;2023-07-13T04:08:14;99926.09;;;25.80
45701;BMP280;36277;32.852;-116.998;2023-07-13T04:10:40;99931.94;;;25.45
45701;BMP280;36277;32.852;-116.998;2023-07-13T04:13:06;99934.09;;;25.09
45701;BMP280;36277;32.852;-116.998;2023-07-13T04:15:33;99939.09;;;24.93
45701;BMP280;36277;32.852;-116.998;2023-07-13T04:17:59;99947.59;;;24.98
45701;BMP280;36277;32.852;-116.998;2023-07-13T04:20:26;99947.97;;;25.22
45701;BMP280;36277;32.852;-116.998;2023-07-13T04:22:52;99946.78;;;25.37
45701;BMP280;36277;32.852;-116.998;2023-07-13T04:25:20;99945.09;;;25.49
45701;BMP280;36277;32.852;-116.998;2023-07-13T04:27:46;99947.50;;;25.59
45701;BMP280;36277;32.852;-116.998;2023-07-13T04:30:13;99953.47;;;25.69
45701;BMP280;36277;32.852;-116.998;2023-07-13T04:32:39;99962.69;;;25.82
45701;BMP280;36277;32.852;-116.998;2023-07-13T04:35:05;99963.34;;;25.91
45701;BMP280;36277;32.852;-116.998;2023-07-13T04:37:32;99961.25;;;25.99
45701;BMP280;36277;32.852;-116.998;2023-07-13T04:39:58;99961.25;;;26.06
45701;BMP280;36277;32.852;-116.998;2023-07-13T04:42:24;99968.72;;;26.12
45701;BMP280;36277;32.852;-116.998;2023-07-13T04:44:51;99967.66;;;26.19
45701;BMP280;36277;32.852;-116.998;2023-07-13T04:47:20;99973.63;;;26.29
45701;BMP280;36277;32.852;-116.998;2023-07-13T04:49:46;99977.66;;;26.33
45701;BMP280;36277;32.852;-116.998;2023-07-13T04:52:13;99983.41;;;26.38
45701;BMP280;36277;32.852;-116.998;2023-07-13T04:54:40;99981.56;;;26.45
45701;BMP280;36277;32.852;-116.998;2023-07-13T04:57:06;99975.16;;;26.44
45701;BMP280;36277;32.852;-116.998;2023-07-13T04:59:33;99995.59;;;26.50
45701;BMP280;36277;32.852;-116.998;2023-07-13T05:01:59;99992.59;;;26.58
45701;BMP280;36277;32.852;-116.998;2023-07-13T05:04:27;99994.94;;;26.61
45701;BMP280;36277;32.852;-116.998;2023-07-13T05:06:53;99999.66;;;26.67
45701;BMP280;36277;32.852;-116.998;2023-07-13T05:09:19;99996.03;;;26.73
45701;BMP280;36277;32.852;-116.998;2023-07-13T05:11:46;100004.50;;;26.78
45701;BMP280;36277;32.852;-116.998;2023-07-13T05:14:12;100003.66;;;26.84
45701;BMP280;36277;32.852;-116.998;2023-07-13T05:16:38;100002.19;;;26.88
45701;BMP280;36277;32.852;-116.998;2023-07-13T05:19:04;100006.41;;;26.90
45701;BMP280;36277;32.852;-116.998;2023-07-13T05:21:30;99998.31;;;26.95
45701;BMP280;36277;32.852;-116.998;2023-07-13T05:23:57;100013.69;;;26.98
45701;BMP280;36277;32.852;-116.998;2023-07-13T05:26:26;100016.44;;;27.04
45701;BMP280;36277;32.852;-116.998;2023-07-13T05:28:52;100009.19;;;27.03
45701;BMP280;36277;32.852;-116.998;2023-07-13T05:31:19;100010.69;;;27.06
45701;BMP280;36277;32.852;-116.998;2023-07-13T05:33:45;100013.91;;;27.09
45701;BMP280;36277;32.852;-116.998;2023-07-13T05:36:12;100011.31;;;27.14
45701;BMP280;36277;32.852;-116.998;2023-07-13T05:38:38;100007.47;;;27.15
45701;BMP280;36277;32.852;-116.998;2023-07-13T05:41:06;100016.88;;;27.21
45701;BMP280;36277;32.852;-116.998;2023-07-13T05:43:33;100015.38;;;27.25
45701;BMP280;36277;32.852;-116.998;2023-07-13T05:45:59;100021.31;;;27.28
45701;BMP280;36277;32.852;-116.998;2023-07-13T05:48:25;100032.81;;;27.32
45701;BMP280;36277;32.852;-116.998;2023-07-13T05:50:51;100027.69;;;27.29
45701;BMP280;36277;32.852;-116.998;2023-07-13T05:53:18;100023.22;;;27.28
45701;BMP280;36277;32.852;-116.998;2023-07-13T05:55:53;100022.78;;;27.37
45701;BMP280;36277;32.852;-116.998;2023-07-13T05:58:22;100021.09;;;27.23
45701;BMP280;36277;32.852;-116.998;2023-07-13T06:00:48;100024.34;;;26.75
45701;BMP280;36277;32.852;-116.998;2023-07-13T06:03:15;100031.13;;;26.53
45701;BMP280;36277;32.852;-116.998;2023-07-13T06:05:41;100024.28;;;26.23
45701;BMP280;36277;32.852;-116.998;2023-07-13T06:08:08;100031.66;;;25.97
45701;BMP280;36277;32.852;-116.998;2023-07-13T06:10:43;100038.41;;;25.81
45701;BMP280;36277;32.852;-116.998;2023-07-13T06:13:09;100037.97;;;25.37
45701;BMP280;36277;32.852;-116.998;2023-07-13T06:15:35;100042.97;;;25.27
45701;BMP280;36277;32.852;-116.998;2023-07-13T06:18:02;100038.59;;;25.12
45701;BMP280;36277;32.852;-116.998;2023-07-13T06:20:28;100043.84;;;25.01
45701;BMP280;36277;32.852;-116.998;2023-07-13T06:22:55;100043.63;;;24.75
45701;BMP280;36277;32.852;-116.998;2023-07-13T06:25:21;100037.75;;;24.57
45701;BMP280;36277;32.852;-116.998;2023-07-13T06:27:47;100040.66;;;24.49
45701;BMP280;36277;32.852;-116.998;2023-07-13T06:30:14;100040.66;;;24.70
45701;BMP280;36277;32.852;-116.998;2023-07-13T06:32:40;100036.13;;;24.90
45701;BMP280;36277;32.852;-116.998;2023-07-13T06:35:06;100033.06;;;25.12
45701;BMP280;36277;32.852;-116.998;2023-07-13T06:37:33;100034.41;;;24.89
45701;BMP280;36277;32.852;-116.998;2023-07-13T06:39:59;100039.72;;;24.63
45701;BMP280;36277;32.852;-116.998;2023-07-13T06:42:25;100041.69;;;24.48
45701;BMP280;36277;32.852;-116.998;2023-07-13T06:44:51;100038.16;;;24.12
45701;BMP280;36277;32.852;-116.998;2023-07-13T06:47:18;100043.25;;;24.15
45701;BMP280;36277;32.852;-116.998;2023-07-13T06:49:44;100046.34;;;24.26
45701;BMP280;36277;32.852;-116.998;2023-07-13T06:52:10;100042.28;;;24.43
45701;BMP280;36277;32.852;-116.998;2023-07-13T06:54:36;100035.25;;;24.62
45701;BMP280;36277;32.852;-116.998;2023-07-13T06:57:03;100041.78;;;24.82
45701;BMP280;36277;32.852;-116.998;2023-07-13T06:59:29;100046.13;;;24.91
45701;BMP280;36277;32.852;-116.998;2023-07-13T07:01:55;100042.88;;;24.87
45701;BMP280;36277;32.852;-116.998;2023-07-13T07:04:22;100051.81;;;24.89
45701;BMP280;36277;32.852;-116.998;2023-07-13T07:06:48;100051.78;;;24.83
45701;BMP280;36277;32.852;-116.998;2023-07-13T07:09:14;100049.66;;;24.85
45701;BMP280;36277;32.852;-116.998;2023-07-13T07:11:42;100056.28;;;24.90
45701;BMP280;36277;32.852;-116.998;2023-07-13T07:14:08;100050.59;;;24.92
45701;BMP280;36277;32.852;-116.998;2023-07-13T07:16:35;100045.53;;;25.02
45701;BMP280;36277;32.852;-116.998;2023-07-13T07:19:01;100052.38;;;25.06
45701;BMP280;36277;32.852;-116.998;2023-07-13T07:21:27;100056.03;;;25.13
45701;BMP280;36277;32.852;-116.998;2023-07-13T07:23:54;100049.53;;;25.20
45701;BMP280;36277;32.852;-116.998;2023-07-13T07:26:20;100048.28;;;25.23
45701;BMP280;36277;32.852;-116.998;2023-07-13T07:28:46;100049.97;;;25.24
45701;BMP280;36277;32.852;-116.998;2023-07-13T07:31:12;100044.28;;;25.31
45701;BMP280;36277;32.852;-116.998;2023-07-13T07:33:39;100050.06;;;25.36
45701;BMP280;36277;32.852;-116.998;2023-07-13T07:36:05;100052.19;;;25.34
45701;BMP280;36277;32.852;-116.998;2023-07-13T07:38:31;100046.59;;;25.01
45701;BMP280;36277;32.852;-116.998;2023-07-13T07:40:57;100044.72;;;24.53
45701;BMP280;36277;32.852;-116.998;2023-07-13T07:43:24;100035.84;;;24.15
45701;BMP280;36277;32.852;-116.998;2023-07-13T07:45:50;100043.59;;;24.26
45701;BMP280;36277;32.852;-116.998;2023-07-13T07:48:16;100040.38;;;24.44
45701;BMP280;36277;32.852;-116.998;2023-07-13T07:50:42;100039.84;;;24.55
45701;BMP280;36277;32.852;-116.998;2023-07-13T07:53:10;100044.19;;;24.64
45701;BMP280;36277;32.852;-116.998;2023-07-13T07:55:36;100048.38;;;24.81
45701;BMP280;36277;32.852;-116.998;2023-07-13T07:58:03;100028.94;;;24.95
45701;BMP280;36277;32.852;-116.998;2023-07-13T08:00:29;100040.69;;;25.04
45701;BMP280;36277;32.852;-116.998;2023-07-13T08:02:58;100029.13;;;25.15
45701;BMP280;36277;32.852;-116.998;2023-07-13T08:05:24;100026.81;;;25.25
45701;BMP280;36277;32.852;-116.998;2023-07-13T08:07:51;100030.47;;;25.31
45701;BMP280;36277;32.852;-116.998;2023-07-13T08:10:18;100027.78;;;25.11
45701;BMP280;36277;32.852;-116.998;2023-07-13T08:12:44;100029.59;;;24.70
45701;BMP280;36277;32.852;-116.998;2023-07-13T08:15:12;100023.19;;;24.21
45701;BMP280;36277;32.852;-116.998;2023-07-13T08:17:39;100025.06;;;24.00
45701;BMP280;36277;32.852;-116.998;2023-07-13T08:20:05;100013.72;;;24.09
45701;BMP280;36277;32.852;-116.998;2023-07-13T08:22:32;100027.22;;;24.25
45701;BMP280;36277;32.852;-116.998;2023-07-13T08:24:59;100030.13;;;24.38
45701;BMP280;36277;32.852;-116.998;2023-07-13T08:27:27;100026.28;;;24.53
45701;BMP280;36277;32.852;-116.998;2023-07-13T08:29:53;100014.25;;;24.61
45701;BMP280;36277;32.852;-116.998;2023-07-13T08:32:22;100015.63;;;24.78
45701;BMP280;36277;32.852;-116.998;2023-07-13T08:34:49;100017.84;;;24.89
45701;BMP280;36277;32.852;-116.998;2023-07-13T08:37:16;100013.00;;;24.91
45701;BMP280;36277;32.852;-116.998;2023-07-13T08:39:43;100014.50;;;25.00
45701;BMP280;36277;32.852;-116.998;2023-07-13T08:45:02;100003.63;;;25.19
45701;BMP280;36277;32.852;-116.998;2023-07-13T08:47:35;100013.00;;;25.25
45701;BMP280;36277;32.852;-116.998;2023-07-13T08:50:03;100018.34;;;25.26
45701;BMP280;36277;32.852;-116.998;2023-07-13T08:52:35;100006.06;;;25.35
45701;BMP280;36277;32.852;-116.998;2023-07-13T08:55:11;100001.81;;;25.39
45701;BMP280;36277;32.852;-116.998;2023-07-13T08:57:39;100002.28;;;25.42
45701;BMP280;36277;32.852;-116.998;2023-07-13T09:00:11;99999.41;;;25.23
45701;BMP280;36277;32.852;-116.998;2023-07-13T09:05:42;100000.47;;;24.19
45701;BMP280;36277;32.852;-116.998;2023-07-13T09:13:58;99994.66;;;24.35
45701;BMP280;36277;32.852;-116.998;2023-07-13T09:16:26;99991.91;;;24.35
45701;BMP280;36277;32.852;-116.998;2023-07-13T09:18:59;99996.75;;;24.54
45701;BMP280;36277;32.852;-116.998;2023-07-13T09:21:34;99980.72;;;24.64
45701;BMP280;36277;32.852;-116.998;2023-07-13T09:26:56;99986.31;;;24.77
45701;BMP280;36277;32.852;-116.998;2023-07-13T09:29:34;99971.97;;;24.88
45701;BMP280;36277;32.852;-116.998;2023-07-13T09:32:06;99972.03;;;25.01
45701;BMP280;36277;32.852;-116.998;2023-07-13T09:34:35;99972.69;;;25.03
45701;BMP280;36277;32.852;-116.998;2023-07-13T09:37:02;99967.00;;;25.11
45701;BMP280;36277;32.852;-116.998;2023-07-13T09:39:38;99973.00;;;25.14
45701;BMP280;36277;32.852;-116.998;2023-07-13T09:44:44;99976.25;;;25.24
45701;BMP280;36277;32.852;-116.998;2023-07-13T09:47:21;99975.63;;;25.28
45701;BMP280;36277;32.852;-116.998;2023-07-13T09:50:03;99975.88;;;25.33
45701;BMP280;36277;32.852;-116.998;2023-07-13T09:53:00;99965.03;;;25.32
45701;BMP280;36277;32.852;-116.998;2023-07-13T09:55:36;99959.94;;;25.35
45701;BMP280;36277;32.852;-116.998;2023-07-13T09:58:26;99962.09;;;25.40
45701;BMP280;36277;32.852;-116.998;2023-07-13T10:00:56;99953.38;;;25.36
45701;BMP280;36277;32.852;-116.998;2023-07-13T10:03:29;99959.91;;;25.23
45701;BMP280;36277;32.852;-116.998;2023-07-13T10:06:15;99956.38;;;25.08
45701;BMP280;36277;32.852;-116.998;2023-07-13T10:08:49;99959.75;;;25.03
45701;BMP280;36277;32.852;-116.998;2023-07-13T10:11:22;99954.00;;;24.98
45701;BMP280;36277;32.852;-116.998;2023-07-13T10:13:55;99958.41;;;24.93
45701;BMP280;36277;32.852;-116.998;2023-07-13T10:16:25;99957.66;;;25.05
45701;BMP280;36277;32.852;-116.998;2023-07-13T10:18:58;99962.13;;;25.13
45701;BMP280;36277;32.852;-116.998;2023-07-13T10:21:47;99953.06;;;25.19
45701;BMP280;36277;32.852;-116.998;2023-07-13T10:24:25;99951.41;;;25.24
45701;BMP280;36277;32.852;-116.998;2023-07-13T10:27:03;99948.88;;;25.29
45701;BMP280;36277;32.852;-116.998;2023-07-13T10:29:36;99944.00;;;25.31
45701;BMP280;36277;32.852;-116.998;2023-07-13T10:32:09;99942.53;;;25.35
45701;BMP280;36277;32.852;-116.998;2023-07-13T10:34:37;99942.53;;;25.35
45701;BMP280;36277;32.852;-116.998;2023-07-13T10:37:07;99946.38;;;25.40
45701;BMP280;36277;32.852;-116.998;2023-07-13T10:39:42;99936.56;;;25.38
45701;BMP280;36277;32.852;-116.998;2023-07-13T10:42:11;99943.19;;;25.43
45701;BMP280;36277;32.852;-116.998;2023-07-13T10:44:40;99938.91;;;25.41
45701;BMP280;36277;32.852;-116.998;2023-07-13T10:47:15;99943.63;;;25.47
45701;BMP280;36277;32.852;-116.998;2023-07-13T10:49:44;99936.63;;;25.44
45701;BMP280;36277;32.852;-116.998;2023-07-13T10:52:42;99939.59;;;25.49
45701;BMP280;36277;32.852;-116.998;2023-07-13T10:58:01;99937.25;;;25.46
45701;BMP280;36277;32.852;-116.998;2023-07-13T11:00:31;99939.16;;;25.52
45701;BMP280;36277;32.852;-116.998;2023-07-13T11:03:01;99923.47;;;25.53
45701;BMP280;36277;32.852;-116.998;2023-07-13T11:05:33;99926.63;;;25.43
45701;BMP280;36277;32.852;-116.998;2023-07-13T11:10:47;99924.59;;;25.25
45701;BMP280;36277;32.852;-116.998;2023-07-13T11:13:37;99928.34;;;25.11
45701;BMP280;36277;32.852;-116.998;2023-07-13T11:19:08;99919.00;;;25.12
45701;BMP280;36277;32.852;-116.998;2023-07-13T11:24:51;99915.88;;;25.15
45701;BMP280;36277;32.852;-116.998;2023-07-13T11:27:41;99921.91;;;24.97
45701;BMP280;36277;32.852;-116.998;2023-07-13T11:35:47;99931.69;;;24.66
45701;BMP280;36277;32.852;-116.998;2023-07-13T11:38:32;99924.75;;;24.76
45701;BMP280;36277;32.852;-116.998;2023-07-13T11:41:02;99927.13;;;24.79
45701;BMP280;36277;32.852;-116.998;2023-07-13T11:43:30;99931.63;;;24.87
45701;BMP280;36277;32.852;-116.998;2023-07-13T11:45:56;99927.66;;;24.96
45701;BMP280;36277;32.852;-116.998;2023-07-13T11:48:26;99919.16;;;25.04
45701;BMP280;36277;32.852;-116.998;2023-07-13T11:51:01;99931.09;;;25.04
45701;BMP280;36277;32.852;-116.998;2023-07-13T11:53:46;99917.31;;;25.11
45701;BMP280;36277;32.852;-116.998;2023-07-13T11:56:13;99932.16;;;25.10
45701;BMP280;36277;32.852;-116.998;2023-07-13T11:58:40;99933.50;;;25.14
45701;BMP280;36277;32.852;-116.998;2023-07-13T12:01:18;99928.88;;;25.21
45701;BMP280;36277;32.852;-116.998;2023-07-13T12:03:45;99943.28;;;25.16
45701;BMP280;36277;32.852;-116.998;2023-07-13T12:06:26;99932.91;;;25.25
45701;BMP280;36277;32.852;-116.998;2023-07-13T12:08:59;99931.41;;;25.22
45701;BMP280;36277;32.852;-116.998;2023-07-13T12:11:27;99935.88;;;25.23
45701;BMP280;36277;32.852;-116.998;2023-07-13T12:13:53;99941.00;;;25.26
45701;BMP280;36277;32.852;-116.998;2023-07-13T12:16:31;99941.00;;;25.32
45701;BMP280;36277;32.852;-116.998;2023-07-13T12:19:01;99940.78;;;25.27
45701;BMP280;36277;32.852;-116.998;2023-07-13T12:21:33;99937.19;;;25.33
45701;BMP280;36277;32.852;-116.998;2023-07-13T12:24:01;99944.19;;;25.29
45701;BMP280;36277;32.852;-116.998;2023-07-13T12:26:30;99938.91;;;25.34
45701;BMP280;36277;32.852;-116.998;2023-07-13T12:29:01;99946.78;;;25.37
45701;BMP280;36277;32.852;-116.998;2023-07-13T12:34:01;99943.59;;;25.34
45701;BMP280;36277;32.852;-116.998;2023-07-13T12:36:34;99944.84;;;25.38
45701;BMP280;36277;32.852;-116.998;2023-07-13T12:39:28;99942.97;;;25.38
45701;BMP280;36277;32.852;-116.998;2023-07-13T12:41:53;99952.31;;;25.37
45701;BMP280;36277;32.852;-116.998;2023-07-13T12:44:29;99947.63;;;25.38
45701;BMP280;36277;32.852;-116.998;2023-07-13T12:47:04;99951.69;;;25.42
45701;BMP280;36277;32.852;-116.998;2023-07-13T12:49:41;99954.25;;;25.43
45701;BMP280;36277;32.852;-116.998;2023-07-13T12:52:17;99952.13;;;25.45
45701;BMP280;36277;32.852;-116.998;2023-07-13T12:54:55;99952.13;;;25.45
45701;BMP280;36277;32.852;-116.998;2023-07-13T12:57:23;99955.72;;;25.39
45701;BMP280;36277;32.852;-116.998;2023-07-13T12:59:53;99954.03;;;25.45
45701;BMP280;36277;32.852;-116.998;2023-07-13T13:02:46;99958.72;;;25.44
45701;BMP280;36277;32.852;-116.998;2023-07-13T13:05:18;99963.78;;;25.41
45701;BMP280;36277;32.852;-116.998;2023-07-13T13:07:50;99958.72;;;25.44
45701;BMP280;36277;32.852;-116.998;2023-07-13T13:10:16;99965.94;;;25.45
45701;BMP280;36277;32.852;-116.998;2023-07-13T13:12:43;99972.31;;;25.46
45701;BMP280;36277;32.852;-116.998;2023-07-13T13:15:13;99965.72;;;25.47
45701;BMP280;36277;32.852;-116.998;2023-07-13T13:17:40;99962.78;;;25.48
45701;BMP280;36277;32.852;-116.998;2023-07-13T13:20:18;99962.16;;;25.53
45701;BMP280;36277;32.852;-116.998;2023-07-13T13:22:45;99966.78;;;25.46
45701;BMP280;36277;32.852;-116.998;2023-07-13T13:25:13;99971.69;;;25.50
45701;BMP280;36277;32.852;-116.998;2023-07-13T13:27:43;99968.50;;;25.53
45701;BMP280;36277;32.852;-116.998;2023-07-13T13:30:16;99968.50;;;25.53
45701;BMP280;36277;32.852;-116.998;2023-07-13T13:32:45;99962.16;;;25.53
45701;BMP280;36277;32.852;-116.998;2023-07-13T13:35:20;99970.22;;;25.54
45701;BMP280;36277;32.852;-116.998;2023-07-13T13:37:47;99973.19;;;25.53
45701;BMP280;36277;32.852;-116.998;2023-07-13T13:40:21;99963.44;;;25.57
45701;BMP280;36277;32.852;-116.998;2023-07-13T13:42:53;99971.09;;;25.55
45701;BMP280;36277;32.852;-116.998;2023-07-13T13:45:21;99972.97;;;25.54
45701;BMP280;36277;32.852;-116.998;2023-07-13T13:47:47;99965.16;;;25.58
45701;BMP280;36277;32.852;-116.998;2023-07-13T13:50:21;99970.03;;;25.62
45701;BMP280;36277;32.852;-116.998;2023-07-13T13:52:48;99972.78;;;25.56
45701;BMP280;36277;32.852;-116.998;2023-07-13T13:55:17;99973.22;;;25.59
45701;BMP280;36277;32.852;-116.998;2023-07-13T13:57:47;99976.63;;;25.55
45701;BMP280;36277;32.852;-116.998;2023-07-13T14:00:16;99984.00;;;25.08
45701;BMP280;36277;32.852;-116.998;2023-07-13T14:02:48;99976.50;;;24.68
45701;BMP280;36277;32.852;-116.998;2023-07-13T14:05:21;99970.75;;;24.42
45701;BMP280;36277;32.852;-116.998;2023-07-13T14:07:48;99972.47;;;24.43
45701;BMP280;36277;32.852;-116.998;2023-07-13T14:10:17;99976.91;;;24.65
45701;BMP280;36277;32.852;-116.998;2023-07-13T14:12:46;99976.34;;;24.76
45701;BMP280;36277;32.852;-116.998;2023-07-13T14:15:28;99973.69;;;24.89
45701;BMP280;36277;32.852;-116.998;2023-07-13T14:17:56;99977.28;;;24.89